• Join FlightAware (Why Join?)
  • Login
  • US Flag 
09:11PM EDT


 

Airport Tracker/Info


-or-


 

Live Flight TrackerFlight Track Log ✈ QFA1073 ✈ 13-May-2014 ✈ YBRM / BME - YPPH / PER

Flight Track Log - Related Links

Times and Time Zones

All times are in EDT time to prevent confusion due to time zone crossing. See the QFA1073 flight status page for this flight to view local times or setup timezone preferences in your user account.

Time Position Orientation Groundspeed Altitude Reporting Facility
EDT Latitude Longitude Course Direction KTS MPH feet Rate Location/Type
01:01AM -17.9465 122.2189 286° West 162 186 200  Level FlightAware ADS-B (YBRM / BME)
01:01AM -17.9496 122.2277 287° West 16,300 2,460 Climbing Aus ATC (Calculated)
01:01AM -17.9433 122.2066 286° West 164 189 900 -37,020 Descending FlightAware ADS-B (YBRM / BME)
01:01AM -17.9403 122.1938 283° West 175 201 1,500 1,800 Climbing FlightAware ADS-B (YBRM / BME)
01:01AM -17.9396 122.1846 269° West 188 216 1,700 1,260 Climbing FlightAware ADS-B (YBRM / BME)
01:01AM -17.9403 122.1811 260° West 195 224 1,800 1,500 Climbing FlightAware ADS-B (YBRM / BME)
01:01AM -17.9417 122.1771 250° West 203 234 1,900 1,320 Climbing FlightAware ADS-B (YBRM / BME)
01:02AM -17.9443 122.1727 237° Southwest 212 244 2,000 1,320 Climbing FlightAware ADS-B (YBRM / BME)
01:02AM -17.9471 122.1696 228° Southwest 217 250 2,100 1,500 Climbing FlightAware ADS-B (YBRM / BME)
01:02AM -17.9506 122.1668 216° Southwest 224 258 2,200 1,980 Climbing FlightAware ADS-B (YBRM / BME)
01:02AM -18.0012 122.1930 326° Northwest 16,300 2,220 Climbing Aus ATC (Calculated)
01:02AM -17.9587 122.1633 199° South 232 267 2,500 -90,720 Descending FlightAware ADS-B (YBRM / BME)
01:02AM -17.9634 122.1626 188° South 236 272 2,700 2,400 Climbing FlightAware ADS-B (YBRM / BME)
01:02AM -17.9685 122.1628 176° South 237 273 2,900 3,300 Climbing FlightAware ADS-B (YBRM / BME)
01:02AM -17.9733 122.1637 169° South 237 273 3,200 3,720 Climbing FlightAware ADS-B (YBRM / BME)
01:02AM -17.9777 122.1651 164° South 238 274 3,400 2,700 Climbing FlightAware ADS-B (YBRM / BME)
01:02AM -17.9854 122.1683 156° South 247 284 3,700 1,980 Climbing FlightAware ADS-B (YBRM / BME)
01:02AM -18.0000 122.1762 152° Southeast 262 302 4,100 1,620 Climbing FlightAware ADS-B (YBRM / BME)
01:03AM -18.0046 122.1782 157° South 263 303 4,200 1,500 Climbing FlightAware ADS-B (YBRM / BME)
01:03AM -18.0137 122.1802 172° South 265 305 4,400 960 Climbing FlightAware ADS-B (YBRM / BME)
01:03AM -18.0186 122.1802 180° South 266 306 4,400 720 Level FlightAware ADS-B (YBRM / BME)
01:03AM -18.0221 122.1798 188° South 267 307 4,500 1,500 Climbing FlightAware ADS-B (YBRM / BME)
01:03AM -18.0289 122.1781 195° South 269 310 4,600 960 Climbing FlightAware ADS-B (YBRM / BME)
01:03AM -18.0384 122.1731 208° Southwest 271 312 4,700 480 Climbing FlightAware ADS-B (YBRM / BME)
01:03AM -18.0421 122.1706 214° Southwest 273 314 4,700 600 Level FlightAware ADS-B (YBRM / BME)
01:03AM -18.0593 122.1584 214° Southwest 276 318 4,900 960 Climbing FlightAware ADS-B (YBRM / BME)
01:04AM -18.0736 122.1485 214° Southwest 280 322 5,200 2,100 Climbing FlightAware ADS-B (YBRM / BME)
01:04AM -18.1367 122.1017 36° Northeast 16,300 3,000 Climbing Aus ATC (Calculated)
01:04AM -18.0901 122.1371 214° Southwest 280 322 5,900 -22,560 Descending FlightAware ADS-B (YBRM / BME)
01:04AM -18.1085 122.1245 214° Southwest 283 326 6,900 3,480 Climbing FlightAware ADS-B (YBRM / BME)
01:04AM -18.1244 122.1136 213° Southwest 287 330 7,700 3,180 Climbing FlightAware ADS-B (YBRM / BME)
01:05AM -18.1375 122.1048 213° Southwest 290 334 8,300 3,240 Climbing FlightAware ADS-B (YBRM / BME)
01:05AM -18.1932 122.0637 37° Northeast 16,300 3,420 Climbing Aus ATC (Calculated)
01:05AM -18.1932 122.0637 37° Northeast 16,300 -21,840 Level Aus ATC (Calculated)
01:05AM -18.1588 122.0905 213° Southwest 295 339 9,400 -9,840 Descending FlightAware ADS-B (YBRM / BME)
01:05AM -18.1908 122.0684 214° Southwest 302 348 10,900 2,160 Climbing FlightAware ADS-B (YBRM / BME)
01:06AM -18.2314 122.0402 214° Southwest 346 398 11,600 2,280 Climbing FlightAware ADS-B (YBRM / BME)
01:06AM -18.3202 121.9779 34° Northeast 16,300 3,360 Climbing Aus ATC (Calculated)
01:06AM -18.2735 122.0112 214° Southwest 347 399 13,300 -1,860 Descending FlightAware ADS-B (YBRM / BME)
01:07AM -18.3130 121.9837 214° Southwest 347 399 15,000 3,060 Climbing FlightAware ADS-B (YBRM / BME)
01:07AM -18.3515 121.9573 212° Southwest 353 406 16,300 2,400 Climbing FlightAware ADS-B (YBRM / BME)
01:08AM -18.3986 121.9343 202° Southwest 371 427 17,400 1,920 Climbing FlightAware ADS-B (YBRM / BME)
01:08AM -18.5444 121.8747 21° North 38,000 1,740 Climbing Aus ATC (Calculated)
01:08AM -18.4494 121.9137 202° Southwest 389 448 18,300 -27,240 Descending FlightAware ADS-B (YBRM / BME)
01:09AM -18.4981 121.8939 202° Southwest 394 453 19,400 2,280 Climbing FlightAware ADS-B (YBRM / BME)
01:09AM -18.5506 121.8724 202° Southwest 399 459 20,600 2,520 Climbing FlightAware ADS-B (YBRM / BME)
01:10AM -18.6023 121.8511 202° Southwest 394 453 22,000 2,820 Climbing FlightAware ADS-B (YBRM / BME)
01:10AM -18.6520 121.8305 202° Southwest 391 450 23,400 2,220 Climbing FlightAware ADS-B (YBRM / BME)
01:10AM -18.7262 121.8000 21° North 38,000 1,680 Climbing Aus ATC (Calculated)
01:11AM -18.7053 121.8084 202° Southwest 398 458 24,300 -13,860 Descending FlightAware ADS-B (YBRM / BME)
01:11AM -18.7560 121.7875 202° Southwest 401 461 25,300 1,920 Climbing FlightAware ADS-B (YBRM / BME)
01:11AM -18.9080 121.7251 21° North 38,000 1,860 Climbing Aus ATC (Calculated)
01:12AM -18.8067 121.7668 202° Southwest 402 463 26,200 -11,220 Descending FlightAware ADS-B (YBRM / BME)
01:12AM -18.8564 121.7464 202° Southwest 405 466 27,000 1,320 Climbing FlightAware ADS-B (YBRM / BME)
01:13AM -18.9203 121.7201 202° Southwest 414 476 27,700 1,020 Climbing FlightAware ADS-B (YBRM / BME)
01:13AM -19.0898 121.6500 21° North 38,000 1,020 Climbing Aus ATC (Calculated)
01:14AM -19.0500 121.6665 202° Southwest 436 502 28,900  Descending FlightAware ADS-B (YBRM / BME)
01:33AM -21.0793 120.8167 202° Southwest 396 456 38,100 420 Climbing Aus ATC (RADAR)
01:33AM -21.1238 120.7991 200° South 402 463 38,100  Level Aus ATC (RADAR)
01:36AM -21.3600 120.6988 202° Southwest 404 465 38,100  Level Aus ATC (RADAR)
01:37AM -21.4914 120.6432 201° Southwest 404 465 38,100  Level Aus ATC (RADAR)
01:37AM -21.5437 120.6209 202° Southwest 403 464 38,100  Level Aus ATC (RADAR)
01:39AM -21.6814 120.5604 202° Southwest 401 461 38,100  Level Aus ATC (RADAR)
01:39AM -21.7338 120.5385 201° Southwest 400 460 38,100  Level Aus ATC (RADAR)
01:41AM -21.9150 120.4602 202° Southwest 400 460 38,100  Level Aus ATC (RADAR)
01:42AM -22.0362 120.4079 202° Southwest 400 460 38,100  Level Aus ATC (RADAR)
01:43AM -22.0885 120.3856 202° Southwest 401 461 38,100  Level Aus ATC (RADAR)
01:44AM -22.2092 120.3329 202° Southwest 400 460 38,100  Level Aus ATC (RADAR)
01:44AM -22.2605 120.3106 202° Southwest 400 460 38,100  Level Aus ATC (RADAR)
01:46AM -22.4078 120.2474 202° Southwest 400 460 38,100  Level Aus ATC (RADAR)
01:47AM -22.5362 120.1912 202° Southwest 397 457 38,100  Level Aus ATC (RADAR)
01:47AM -22.5878 120.1689 202° Southwest 398 458 38,100  Level Aus ATC (RADAR)
01:49AM -22.7162 120.1126 202° Southwest 398 458 38,100  Level Aus ATC (RADAR)
01:49AM -22.7847 120.0824 202° Southwest 398 458 38,100  Level Aus ATC (RADAR)
01:52AM -23.0292 119.9766 202° Southwest 404 465 38,100  Level Aus ATC (RADAR)
01:53AM -23.1659 119.9162 202° Southwest 397 457 38,100  Level Aus ATC (RADAR)
01:54AM -23.2177 119.8936 202° Southwest 398 458 38,100  Level Aus ATC (RADAR)
01:55AM -23.3459 119.8372 202° Southwest 399 459 38,100  Level Aus ATC (RADAR)
01:55AM -23.3883 119.8184 202° Southwest 397 457 38,100  Level Aus ATC (RADAR)
01:57AM -23.6169 119.7217 201° Southwest 384 442 38,100  Level Aus ATC (RADAR)
01:58AM -23.6714 119.6994 201° Southwest 404 465 38,100  Level Aus ATC (RADAR)
01:59AM -23.7980 119.6460 201° Southwest 393 452 38,100  Level Aus ATC (RADAR)
02:00AM -23.8659 119.6176 201° Southwest 393 452 38,100  Level Aus ATC (RADAR)
02:02AM -24.1004 119.5189 201° Southwest 381 438 38,100  Level Aus ATC (RADAR)
02:03AM -24.2077 119.4736 201° Southwest 384 442 38,100  Level Aus ATC (RADAR)
02:04AM -24.2551 119.4539 201° Southwest 373 429 38,100  Level Aus ATC (RADAR)
02:05AM -24.3960 119.3939 201° Southwest 383 441 38,100  Level Aus ATC (RADAR)
02:06AM -24.4451 119.3732 201° Southwest 381 438 38,100  Level Aus ATC (RADAR)
02:08AM -24.6598 119.2820 201° Southwest 384 442 38,100  Level Aus ATC (RADAR)
02:08AM -24.7084 119.2618 201° Southwest 379 436 38,100  Level Aus ATC (RADAR)
02:10AM -24.8325 119.2091 201° Southwest 382 440 38,100  Level Aus ATC (RADAR)
02:10AM -24.8827 119.1873 202° Southwest 385 443 38,100  Level Aus ATC (RADAR)
02:11AM -25.0148 119.1310 201° Southwest 383 441 38,100  Level Aus ATC (RADAR)
02:13AM -25.1550 119.0707 201° Southwest 384 442 38,100  Level Aus ATC (RADAR)
02:14AM -25.2789 119.0180 201° Southwest 380 437 38,200  Climbing Aus ATC (RADAR)
02:15AM -25.3457 118.9883 202° Southwest 385 443 38,200  Level Aus ATC (RADAR)
02:16AM -25.4853 118.9282 201° Southwest 381 438 38,200  Level Aus ATC (RADAR)
02:17AM -25.5431 118.9027 202° Southwest 382 440 38,200  Level Aus ATC (RADAR)
02:18AM -25.6659 118.8496 201° Southwest 380 437 38,200  Level Aus ATC (RADAR)
02:19AM -25.7877 118.7969 201° Southwest 377 434 38,200  Level Aus ATC (RADAR)
02:20AM -25.8445 118.7722 201° Southwest 376 433 38,200  Level Aus ATC (RADAR)
02:21AM -25.9572 118.7231 201° Southwest 374 430 38,200  Level Aus ATC (RADAR)
02:22AM -26.0056 118.7015 202° Southwest 374 430 38,200  Level Aus ATC (RADAR)
02:24AM -26.2061 118.6136 201° Southwest 373 429 38,200 -60 Level Aus ATC (RADAR)
02:25AM -26.3174 118.5663 201° Southwest 368 423 38,100  Descending Aus ATC (RADAR)
02:25AM -26.3659 118.5419 204° Southwest 376 433 38,200  Climbing Aus ATC (RADAR)
02:27AM -26.4831 118.4976 199° South 361 415 38,200  Level Aus ATC (RADAR)
02:27AM -26.5314 118.4741 204° Southwest 367 422 38,200  Level Aus ATC (RADAR)
02:28AM -26.6430 118.4242 202° Southwest 371 427 38,200  Level Aus ATC (RADAR)
02:29AM -26.7636 118.3685 202° Southwest 400 460 38,200  Level Aus ATC (RADAR)
02:42AM -27.9479 117.8216 202° Southwest 380 437 38,200  Level Aus ATC (RADAR)
02:42AM -27.9984 117.8042 197° South 378 435 38,200  Level Aus ATC (RADAR)
02:43AM -28.1227 117.7485 202° Southwest 385 443 38,200  Level Aus ATC (RADAR)
02:44AM -28.1896 117.7195 201° Southwest 386 444 38,200  Level Aus ATC (RADAR)
02:46AM -28.3780 117.6290 203° Southwest 383 441 38,200 -120 Level Aus ATC (RADAR)
02:47AM -28.4854 117.5975 202° Southwest 382 440 38,000  Descending FlightAware ADS-B (YPPH / PER)
02:47AM -28.4938 117.5798 200° South 383 441 38,200  Climbing Aus ATC (RADAR)
02:48AM -28.5639 117.5616 202° Southwest 381 438 38,000 -180 Descending FlightAware ADS-B (YPPH / PER)
02:48AM -28.6122 117.5395 202° Southwest 381 438 38,000  Level FlightAware ADS-B (YPPH / PER)
02:49AM -28.6775 117.5096 202° Southwest 380 437 38,000  Level FlightAware ADS-B (YPPH / PER)
02:50AM -28.7271 117.4868 202° Southwest 380 437 38,000  Level FlightAware ADS-B (YPPH / PER)
02:50AM -28.7827 117.4612 202° Southwest 379 436 38,000  Level FlightAware ADS-B (YPPH / PER)
02:51AM -28.8302 117.4394 203° Southwest 370 426 38,000  Level FlightAware ADS-B (YPPH / PER)
02:51AM -28.9039 117.4054 203° Southwest 370 426 38,000  Level FlightAware ADS-B (YPPH / PER)
02:52AM -28.9551 117.3818 203° Southwest 370 426 38,000  Level FlightAware ADS-B (YPPH / PER)
02:52AM -29.0037 117.3594 203° Southwest 370 426 38,000  Level FlightAware ADS-B (YPPH / PER)
02:53AM -29.0632 117.3320 203° Southwest 370 426 38,000  Level FlightAware ADS-B (YPPH / PER)
02:54AM -29.1217 117.3049 203° Southwest 370 426 38,000  Level FlightAware ADS-B (YPPH / PER)
02:54AM -29.1896 117.2735 202° Southwest 379 436 38,000  Level FlightAware ADS-B (YPPH / PER)
02:55AM -29.2467 117.2468 202° Southwest 379 436 38,000  Level FlightAware ADS-B (YPPH / PER)
02:56AM -29.3115 117.2168 202° Southwest 379 436 38,000  Level FlightAware ADS-B (YPPH / PER)
02:56AM -29.3744 117.1876 203° Southwest 370 426 38,000  Level FlightAware ADS-B (YPPH / PER)
02:57AM -29.4313 117.1612 203° Southwest 369 425 38,000  Level FlightAware ADS-B (YPPH / PER)
02:57AM -29.4801 117.1384 203° Southwest 370 426 38,000  Level FlightAware ADS-B (YPPH / PER)
02:58AM -29.5269 117.1165 203° Southwest 369 425 38,000  Level FlightAware ADS-B (YPPH / PER)
02:58AM -29.5758 117.0936 203° Southwest 369 425 38,000  Level FlightAware ADS-B (YPPH / PER)
02:59AM -29.6317 117.0675 203° Southwest 371 427 38,000  Level FlightAware ADS-B (YPPH / PER)
02:59AM -29.6786 117.0455 202° Southwest 381 438 38,000  Level FlightAware ADS-B (YPPH / PER)
03:00AM -29.7426 117.0155 202° Southwest 383 441 38,000  Level FlightAware ADS-B (YPPH / PER)
03:01AM -29.7946 116.9910 202° Southwest 384 442 38,000  Level FlightAware ADS-B (YPPH / PER)
03:01AM -29.8498 116.9651 202° Southwest 387 445 38,000  Level FlightAware ADS-B (YPPH / PER)
03:02AM -29.9001 116.9415 202° Southwest 387 445 38,000  Level FlightAware ADS-B (YPPH / PER)
03:02AM -29.9774 116.9051 203° Southwest 381 438 38,000  Level FlightAware ADS-B (YPPH / PER)
03:03AM -30.0267 116.8818 203° Southwest 382 440 38,000  Level FlightAware ADS-B (YPPH / PER)
03:03AM -30.0795 116.8569 203° Southwest 383 441 38,000  Level FlightAware ADS-B (YPPH / PER)
03:04AM -30.1450 116.8259 203° Southwest 384 442 38,000 -120 Level FlightAware ADS-B (YPPH / PER)
03:05AM -30.2024 116.7987 202° Southwest 387 445 37,900 -1,260 Descending FlightAware ADS-B (YPPH / PER)
03:05AM -30.2645 116.7689 203° Southwest 383 441 36,500 -1,860 Descending FlightAware ADS-B (YPPH / PER)
03:06AM -30.3276 116.7393 203° Southwest 384 442 35,600 -2,340 Descending FlightAware ADS-B (YPPH / PER)
03:07AM -30.3944 116.7075 202° Southwest 399 459 33,500 -3,180 Descending FlightAware ADS-B (YPPH / PER)
03:07AM -30.4615 116.6757 203° Southwest 406 467 31,500 -3,240 Descending FlightAware ADS-B (YPPH / PER)
03:08AM -30.5243 116.6457 202° Southwest 439 505 29,600 -3,000 Descending FlightAware ADS-B (YPPH / PER)
03:08AM -30.5837 116.6204 198° South 445 512 28,300 -2,700 Descending FlightAware ADS-B (YPPH / PER)
03:09AM -30.6588 116.5914 199° South 425 489 26,500 -2,700 Descending FlightAware ADS-B (YPPH / PER)
03:09AM -30.7168 116.5686 199° South 424 488 25,200 -2,640 Descending FlightAware ADS-B (YPPH / PER)
03:10AM -30.7777 116.5446 199° South 405 466 23,700 -2,580 Descending FlightAware ADS-B (YPPH / PER)
03:10AM -30.8324 116.5231 199° South 405 466 22,500 -2,460 Descending FlightAware ADS-B (YPPH / PER)
03:11AM -30.9038 116.4951 199° South 388 447 20,800 -2,580 Descending FlightAware ADS-B (YPPH / PER)
03:12AM -30.9717 116.4687 199° South 387 445 19,100 -2,520 Descending FlightAware ADS-B (YPPH / PER)
03:12AM -31.0270 116.4471 199° South 372 428 17,800 -2,400 Descending FlightAware ADS-B (YPPH / PER)
03:13AM -31.0772 116.4273 199° South 373 429 16,600 -2,340 Descending FlightAware ADS-B (YPPH / PER)
03:13AM -31.1242 116.4089 199° South 360 414 15,500 -2,280 Descending FlightAware ADS-B (YPPH / PER)
03:14AM -31.1753 116.3889 199° South 360 414 14,300 -2,280 Descending FlightAware ADS-B (YPPH / PER)
03:14AM -31.2271 116.3685 199° South 354 407 13,100 -2,220 Descending FlightAware ADS-B (YPPH / PER)
03:15AM -31.2883 116.3445 199° South 337 388 11,600 -1,980 Descending FlightAware ADS-B (YPPH / PER)
03:16AM -31.3483 116.3208 199° South 321 369 10,500 -1,200 Descending FlightAware ADS-B (YPPH / PER)
03:16AM -31.4023 116.2995 199° South 294 338 10,000 -1,020 Descending FlightAware ADS-B (YPPH / PER)
03:17AM -31.4442 116.2761 210° Southwest 276 318 9,300 -1,260 Descending FlightAware ADS-B (YPPH / PER)
03:17AM -31.4646 116.2631 209° Southwest 281 323 8,900 -1,380 Descending FlightAware ADS-B (YPPH / PER)
03:18AM -31.4929 116.2450 208° Southwest 277 319 8,300 -1,560 Descending FlightAware ADS-B (YPPH / PER)
03:18AM -31.5179 116.2289 209° Southwest 274 315 7,700 -1,440 Descending FlightAware ADS-B (YPPH / PER)
03:18AM -31.5404 116.2144 210° Southwest 264 304 7,300 -1,380 Descending FlightAware ADS-B (YPPH / PER)
03:19AM -31.5721 116.1942 210° Southwest 260 299 6,600 -1,500 Descending FlightAware ADS-B (YPPH / PER)
03:19AM -31.5930 116.1809 209° Southwest 258 297 6,100 -1,320 Descending FlightAware ADS-B (YPPH / PER)
03:20AM -31.6158 116.1661 209° Southwest 260 299 5,700 -840 Descending FlightAware ADS-B (YPPH / PER)
03:20AM -31.6408 116.1503 209° Southwest 242 278 5,500 -720 Descending FlightAware ADS-B (YPPH / PER)
03:20AM -31.6593 116.1384 209° Southwest 244 281 5,200 -1,080 Descending FlightAware ADS-B (YPPH / PER)
03:21AM -31.6849 116.1221 209° Southwest 242 278 4,700 -1,020 Descending FlightAware ADS-B (YPPH / PER)
03:21AM -31.7078 116.1074 210° Southwest 229 264 4,400 -720 Descending FlightAware ADS-B (YPPH / PER)
03:21AM -31.7270 116.0948 209° Southwest 226 260 4,200 -600 Descending FlightAware ADS-B (YPPH / PER)
03:22AM -31.7431 116.0845 210° Southwest 211 243 4,000 -720 Descending FlightAware ADS-B (YPPH / PER)
03:22AM -31.7600 116.0679 231° Southwest 200 230 3,700 -960 Descending FlightAware ADS-B (YPPH / PER)
03:22AM -31.7691 116.0536 235° Southwest 198 228 3,400 -1,140 Descending FlightAware ADS-B (YPPH / PER)
03:23AM -31.7787 116.0388 235° Southwest 198 228 3,100 -960 Descending FlightAware ADS-B (YPPH / PER)
03:23AM -31.7962 116.0119 227° Southwest 195 224 2,600 -1,080 Descending FlightAware ADS-B (YPPH / PER)
03:24AM -31.8106 116.0023 211° Southwest 188 216 2,200 -960 Descending FlightAware ADS-B (YPPH / PER)
03:25AM -31.8819 115.9822 211° Southwest 145 167 900 -840 Descending Aus ATC (RADAR)
03:26AM -31.9321 115.9675 211° Southwest 188 216 -720 Descending FlightAware ADS-B (YPPH / PER)